createdAt,value
2018-12-06T00:00:19.738Z,7.63
2018-12-06T00:02:59.223Z,7.90
2018-12-06T00:05:43.212Z,7.73
2018-12-06T00:11:10.676Z,7.57
2018-12-06T00:13:50.724Z,7.73
2018-12-06T00:16:21.829Z,7.63
2018-12-06T00:19:07.530Z,7.50
2018-12-06T00:24:30.769Z,7.30
2018-12-06T00:31:03.023Z,8.33
2018-12-06T00:33:30.490Z,7.97
2018-12-06T00:35:58.019Z,7.50
2018-12-06T00:38:26.021Z,7.47
2018-12-06T00:40:53.581Z,7.77
2018-12-06T00:43:21.117Z,7.43
2018-12-06T00:45:48.542Z,7.47
2018-12-06T00:48:16.061Z,7.13
2018-12-06T00:50:43.645Z,7.17
2018-12-06T00:53:11.307Z,7.57
2018-12-06T00:55:38.885Z,7.03
2018-12-06T00:58:06.431Z,6.90
2018-12-06T01:00:33.998Z,7.00
2018-12-06T01:03:01.518Z,7.73
2018-12-06T01:05:29.034Z,7.57
2018-12-06T01:07:56.580Z,7.47
2018-12-06T01:10:24.154Z,7.47
2018-12-06T01:12:51.682Z,7.73
2018-12-06T01:15:19.208Z,7.37
2018-12-06T01:17:46.792Z,7.63
2018-12-06T01:20:14.472Z,7.93
2018-12-06T01:22:42.054Z,7.60
2018-12-06T01:25:09.572Z,7.80
2018-12-06T01:27:37.148Z,7.53
2018-12-06T01:30:05.203Z,7.30
2018-12-06T01:32:32.788Z,8.37
2018-12-06T01:35:00.531Z,8.13
2018-12-06T01:37:28.087Z,7.60
2018-12-06T01:39:55.650Z,6.97
2018-12-06T01:42:23.210Z,7.37
2018-12-06T01:44:50.773Z,7.47
2018-12-06T01:47:18.325Z,6.67
2018-12-06T01:49:45.918Z,6.90
2018-12-06T01:52:13.550Z,6.27
2018-12-06T01:54:41.207Z,6.47
2018-12-06T01:57:08.687Z,6.27
2018-12-06T01:59:36.114Z,6.10
2018-12-06T02:02:04.092Z,6.90
2018-12-06T02:04:31.719Z,6.40
2018-12-06T02:06:59.311Z,6.83
2018-12-06T02:09:26.851Z,6.60
2018-12-06T02:11:54.335Z,6.77
2018-12-06T02:14:21.780Z,6.93
2018-12-06T02:16:49.349Z,6.83
2018-12-06T02:19:16.875Z,6.37
2018-12-06T02:21:44.464Z,6.77
2018-12-06T02:24:12.148Z,7.00
2018-12-06T02:26:39.671Z,6.77
2018-12-06T02:29:07.274Z,6.30
2018-12-06T02:31:34.810Z,6.30
2018-12-06T02:34:02.311Z,6.37
2018-12-06T02:36:29.844Z,6.47
2018-12-06T02:38:57.390Z,6.57
2018-12-06T02:41:24.949Z,5.97
2018-12-06T02:43:52.749Z,6.40
2018-12-06T02:46:20.377Z,6.57
2018-12-06T02:48:47.980Z,6.73
2018-12-06T02:51:15.556Z,6.37
2018-12-06T02:53:43.166Z,6.40
2018-12-06T02:56:10.751Z,6.80
2018-12-06T02:58:38.393Z,6.07
2018-12-06T03:01:06.178Z,6.47
2018-12-06T03:03:33.735Z,6.47
2018-12-06T03:06:01.461Z,6.17
2018-12-06T03:08:28.994Z,5.87
2018-12-06T03:10:56.567Z,6.37
2018-12-06T03:13:24.048Z,6.23
2018-12-06T03:15:51.573Z,6.07
2018-12-06T03:18:19.200Z,6.40
2018-12-06T03:20:46.807Z,5.70
2018-12-06T03:23:14.299Z,5.80
2018-12-06T03:25:41.940Z,6.30
2018-12-06T03:28:09.407Z,5.80
2018-12-06T03:30:36.937Z,5.77
2018-12-06T03:33:04.421Z,5.27
2018-12-06T03:35:31.960Z,5.30
2018-12-06T03:37:59.562Z,4.97
2018-12-06T03:40:27.115Z,4.67
2018-12-06T03:42:54.634Z,5.07
2018-12-06T03:45:22.170Z,4.80
2018-12-06T03:47:49.599Z,4.80
2018-12-06T03:50:17.060Z,4.43
2018-12-06T03:52:44.629Z,4.83
2018-12-06T03:55:12.069Z,4.23
2018-12-06T03:57:39.532Z,4.20
2018-12-06T04:00:07.513Z,4.10
2018-12-06T04:02:35.033Z,4.33
2018-12-06T04:05:02.664Z,4.30
2018-12-06T04:07:30.256Z,4.63
2018-12-06T04:09:57.712Z,4.70
2018-12-06T04:12:25.203Z,4.43
2018-12-06T04:14:52.765Z,4.20
2018-12-06T04:17:20.271Z,4.17
2018-12-06T04:19:47.736Z,4.17
2018-12-06T04:22:15.231Z,3.80
2018-12-06T04:24:42.733Z,3.60
2018-12-06T04:27:10.282Z,3.60
2018-12-06T04:29:37.745Z,3.63
2018-12-06T04:32:05.296Z,3.67
2018-12-06T04:34:32.830Z,3.90
2018-12-06T04:37:00.299Z,3.80
2018-12-06T04:39:27.786Z,3.80
2018-12-06T04:41:55.221Z,3.90
2018-12-06T04:44:26.627Z,3.73
2018-12-06T04:47:06.140Z,3.67
2018-12-06T04:49:33.706Z,3.70
2018-12-06T04:52:01.358Z,4.17
2018-12-06T04:54:28.840Z,3.93
2018-12-06T04:56:56.310Z,4.00
2018-12-06T04:59:23.854Z,3.73
2018-12-06T05:01:51.355Z,3.97
2018-12-06T05:04:18.849Z,4.00
2018-12-06T05:06:46.478Z,4.00
2018-12-06T05:09:13.956Z,3.93
2018-12-06T05:11:41.500Z,3.90
2018-12-06T05:14:09.022Z,3.60
2018-12-06T05:16:36.496Z,3.67
2018-12-06T05:22:00.067Z,3.83
2018-12-06T05:24:27.698Z,4.37
2018-12-06T05:26:55.240Z,4.00
2018-12-06T05:29:23.024Z,3.87
2018-12-06T05:31:50.514Z,3.70
2018-12-06T05:34:18.045Z,3.80
2018-12-06T05:36:45.582Z,4.00
2018-12-06T05:39:13.165Z,4.10
2018-12-06T05:41:40.711Z,3.93
2018-12-06T05:44:08.301Z,4.13
2018-12-06T05:46:35.865Z,3.70
2018-12-06T05:49:03.422Z,3.97
2018-12-06T05:51:30.949Z,4.50
2018-12-06T05:53:58.502Z,4.30
2018-12-06T05:56:26.001Z,4.67
2018-12-06T05:58:53.627Z,4.47
2018-12-06T06:01:21.173Z,4.57
2018-12-06T06:03:48.631Z,4.30
2018-12-06T06:06:16.219Z,4.23
2018-12-06T06:08:43.717Z,4.07
2018-12-06T06:11:11.218Z,3.93
2018-12-06T06:13:38.885Z,4.37
2018-12-06T06:16:06.352Z,4.50
2018-12-06T06:18:34.623Z,5.20
2018-12-06T06:21:02.190Z,4.97
2018-12-06T06:23:30.076Z,4.50
2018-12-06T06:25:57.730Z,4.27
2018-12-06T06:28:25.344Z,4.83
2018-12-06T06:30:53.105Z,4.53
2018-12-06T06:33:20.661Z,4.23
2018-12-06T06:35:48.288Z,4.53
2018-12-06T06:38:15.866Z,4.87
2018-12-06T06:40:43.324Z,4.70
2018-12-06T06:43:17.463Z,5.10
2018-12-06T06:48:41.146Z,5.00
2018-12-06T06:51:11.702Z,4.83
2018-12-06T07:02:27.174Z,4.27
2018-12-06T07:13:46.416Z,4.40
2018-12-06T07:16:13.986Z,4.60
2018-12-06T07:18:41.591Z,4.30
2018-12-06T07:21:09.244Z,4.43
2018-12-06T07:23:36.866Z,3.97
2018-12-06T07:26:04.562Z,4.00
2018-12-06T07:28:32.140Z,4.00
2018-12-06T07:31:10.346Z,3.87
2018-12-06T07:33:37.858Z,3.57
2018-12-06T07:36:05.339Z,3.50
2018-12-06T07:44:27.212Z,3.90
2018-12-06T07:49:48.909Z,3.70
2018-12-06T07:52:17.696Z,3.80
2018-12-06T07:54:50.820Z,3.73
2018-12-06T08:00:09.115Z,3.50
2018-12-06T08:02:42.037Z,3.90
2018-12-06T08:05:15.499Z,3.70
2018-12-06T08:07:48.655Z,3.53
2018-12-06T08:10:28.515Z,3.70
2018-12-06T08:13:09.935Z,3.73
2018-12-06T08:18:42.633Z,3.40
2018-12-06T08:21:29.202Z,3.33
2018-12-06T08:38:05.830Z,3.30
2018-12-06T08:40:43.871Z,3.20
2018-12-06T08:43:15.444Z,3.07
2018-12-06T08:45:49.102Z,3.13
2018-12-06T08:48:20.770Z,3.13
2018-12-06T08:50:51.820Z,3.40
2018-12-06T08:53:23.175Z,3.50
2018-12-06T08:55:54.392Z,3.03
2018-12-06T08:58:25.694Z,3.00
2018-12-06T09:01:05.708Z,3.20
2018-12-06T09:06:33.174Z,3.13
2018-12-06T09:14:11.988Z,3.20
2018-12-06T09:16:43.382Z,3.20
2018-12-06T09:19:14.881Z,3.30
2018-12-06T09:21:47.658Z,3.23
2018-12-06T09:24:18.881Z,3.20
2018-12-06T09:26:58.652Z,3.43
2018-12-06T09:29:25.264Z,3.93
2018-12-06T09:31:54.382Z,3.53
2018-12-06T09:34:25.372Z,3.10
2018-12-06T09:36:56.384Z,3.50
2018-12-06T09:42:19.046Z,3.50
2018-12-06T09:44:47.971Z,4.37
2018-12-06T09:47:19.058Z,4.00
2018-12-06T09:49:50.534Z,3.10
2018-12-06T09:52:27.869Z,3.30
2018-12-06T09:55:05.122Z,3.20
2018-12-06T09:57:32.642Z,3.60
2018-12-06T10:00:00.219Z,3.70
2018-12-06T10:02:27.842Z,3.90
2018-12-06T10:04:55.331Z,3.30
2018-12-06T10:07:22.836Z,3.60
2018-12-06T10:09:50.434Z,3.97
2018-12-06T10:12:18.130Z,3.87
2018-12-06T10:14:45.700Z,3.57
2018-12-06T10:17:13.218Z,3.40
2018-12-06T10:19:40.826Z,3.73
2018-12-06T10:22:08.417Z,3.63
2018-12-06T10:24:36.114Z,4.00
2018-12-06T10:27:03.728Z,4.00
2018-12-06T10:29:31.329Z,3.80
2018-12-06T10:31:58.963Z,3.90
2018-12-06T10:34:30.838Z,4.13
2018-12-06T10:36:58.449Z,4.30
2018-12-06T10:39:26.272Z,3.97
2018-12-06T10:41:53.898Z,4.00
2018-12-06T10:44:28.768Z,4.40
2018-12-06T10:46:56.316Z,6.40
2018-12-06T10:49:23.842Z,3.83
2018-12-06T10:51:56.042Z,4.30
2018-12-06T10:54:30.003Z,4.03
2018-12-06T10:56:59.511Z,4.03
2018-12-06T10:59:27.135Z,4.10
2018-12-06T11:02:00.351Z,4.13
2018-12-06T11:04:34.308Z,5.97
2018-12-06T11:07:05.848Z,4.43
2018-12-06T11:09:45.981Z,4.13
2018-12-06T11:12:19.064Z,4.70
2018-12-06T11:14:46.718Z,4.40
2018-12-06T11:17:14.200Z,4.37
2018-12-06T11:19:41.758Z,5.83
2018-12-06T11:22:09.314Z,4.53
2018-12-06T11:24:36.796Z,5.20
2018-12-06T11:29:57.832Z,4.87
2018-12-06T11:32:25.442Z,12.73
2018-12-06T11:34:52.962Z,13.97
2018-12-06T11:37:20.464Z,5.43
2018-12-06T11:39:52.600Z,5.83
2018-12-06T11:42:20.208Z,4.33
2018-12-06T11:44:47.663Z,3.73
2018-12-06T11:47:15.640Z,3.90
2018-12-06T11:49:43.991Z,6.50
2018-12-06T11:52:11.603Z,5.20
2018-12-06T11:54:39.204Z,3.87
2018-12-06T11:57:11.371Z,4.50
2018-12-06T11:59:40.018Z,4.10
2018-12-06T12:02:12.283Z,4.27
2018-12-06T12:04:43.350Z,4.77
2018-12-06T12:07:14.468Z,3.93
2018-12-06T12:09:45.978Z,4.47
2018-12-06T12:12:25.691Z,4.67
2018-12-06T12:15:00.597Z,4.70
2018-12-06T12:17:31.871Z,4.30
2018-12-06T12:20:03.315Z,3.63
2018-12-06T12:22:34.326Z,3.63
2018-12-06T12:25:11.765Z,3.67
2018-12-06T12:27:49.721Z,4.20
2018-12-06T12:30:20.417Z,3.37
2018-12-06T12:32:49.375Z,3.53
2018-12-06T12:35:20.321Z,3.60
2018-12-06T12:37:51.513Z,3.60
2018-12-06T12:40:22.516Z,3.37
2018-12-06T12:42:53.539Z,3.60
2018-12-06T12:45:24.482Z,3.70
2018-12-06T12:48:01.727Z,3.83
2018-12-06T12:53:30.968Z,3.60
2018-12-06T12:58:50.287Z,3.13
2018-12-06T13:01:21.600Z,3.50
2018-12-06T13:09:39.214Z,3.30
2018-12-06T13:12:19.153Z,3.20
2018-12-06T13:14:50.177Z,3.10
2018-12-06T13:25:52.777Z,3.50
2018-12-06T13:37:36.874Z,3.30
2018-12-06T13:40:18.917Z,3.70
2018-12-06T13:42:49.869Z,5.70
2018-12-06T13:45:17.336Z,16.30
2018-12-06T13:47:44.850Z,8.30
2018-12-06T13:56:01.285Z,3.20
2018-12-06T13:58:28.694Z,3.27
2018-12-06T14:01:06.966Z,3.17
2018-12-06T14:03:34.829Z,3.07
2018-12-06T14:06:02.402Z,3.00
2018-12-06T14:08:29.938Z,3.30
2018-12-06T14:10:57.421Z,3.00
2018-12-06T14:13:25.076Z,2.93
2018-12-06T14:15:52.638Z,2.90
2018-12-06T14:18:24.392Z,2.80
2018-12-06T14:23:42.301Z,2.90
2018-12-06T14:26:11.165Z,3.00
2018-12-06T14:31:25.898Z,2.90
2018-12-06T14:33:53.538Z,3.07
2018-12-06T14:36:21.210Z,3.20
2018-12-06T14:38:54.597Z,3.10
2018-12-06T14:41:22.116Z,3.10
2018-12-06T14:43:55.668Z,2.77
2018-12-06T14:49:23.138Z,2.90
2018-12-06T14:51:54.414Z,2.70
2018-12-06T15:00:45.472Z,3.00
2018-12-06T15:03:16.407Z,3.30
2018-12-06T15:05:50.378Z,2.93
2018-12-06T15:08:32.551Z,3.20
2018-12-06T15:14:00.708Z,3.20
2018-12-06T15:16:32.010Z,3.20
2018-12-06T15:19:05.441Z,3.37
2018-12-06T15:27:15.973Z,3.60
2018-12-06T15:29:49.305Z,3.57
2018-12-06T15:32:22.863Z,3.30
2018-12-06T15:35:02.531Z,3.10
2018-12-06T15:37:42.350Z,3.17
2018-12-06T15:40:13.272Z,3.00
2018-12-06T15:42:54.158Z,3.30
2018-12-06T15:45:41.006Z,2.97
2018-12-06T15:48:14.587Z,2.87
2018-12-06T15:50:50.353Z,3.20
2018-12-06T15:53:24.464Z,2.83
2018-12-06T15:55:52.708Z,2.93
2018-12-06T15:58:23.841Z,2.67
2018-12-06T16:00:57.259Z,2.90
2018-12-06T16:03:30.763Z,2.77
2018-12-06T16:06:13.307Z,3.00
2018-12-06T16:08:48.983Z,2.87
2018-12-06T16:11:17.990Z,3.07
2018-12-06T16:13:46.806Z,3.00
2018-12-06T16:16:24.792Z,3.03
2018-12-06T16:18:56.160Z,3.10
2018-12-06T16:21:23.659Z,3.00
2018-12-06T16:23:57.136Z,3.20
2018-12-06T16:26:36.928Z,2.87
2018-12-06T16:29:10.426Z,2.97
2018-12-06T16:31:57.102Z,2.83
2018-12-06T16:34:30.566Z,3.17
2018-12-06T16:42:48.746Z,3.17
2018-12-06T16:45:28.578Z,3.00
2018-12-06T16:48:05.914Z,3.10
2018-12-06T16:50:56.185Z,2.97
2018-12-06T16:53:29.968Z,2.77
2018-12-06T16:55:59.364Z,3.10
2018-12-06T17:01:19.229Z,3.10
2018-12-06T17:03:50.774Z,3.00
2018-12-06T17:09:26.696Z,3.00
2018-12-06T17:11:57.690Z,2.83
2018-12-06T17:14:28.704Z,3.00
2018-12-06T17:17:02.117Z,3.20
2018-12-06T17:19:37.813Z,3.00
2018-12-06T17:22:08.495Z,2.73
2018-12-06T17:24:37.487Z,2.70
2018-12-06T17:27:08.811Z,3.00
2018-12-06T17:29:38.345Z,2.90
2018-12-06T17:34:58.745Z,2.70
2018-12-06T17:37:29.779Z,2.67
2018-12-06T17:39:59.060Z,2.90
2018-12-06T17:42:32.621Z,2.93
2018-12-06T17:45:09.422Z,2.87
2018-12-06T17:47:46.229Z,3.10
2018-12-06T17:50:27.604Z,3.00
2018-12-06T17:58:07.492Z,3.00
2018-12-06T18:03:28.505Z,3.33
2018-12-06T18:08:55.868Z,3.00
2018-12-06T18:11:27.137Z,3.10
2018-12-06T18:13:58.593Z,3.00
2018-12-06T18:16:29.729Z,2.97
2018-12-06T18:21:57.283Z,3.00
2018-12-06T18:27:22.477Z,2.60
2018-12-06T18:29:55.995Z,3.10
2018-12-06T18:32:28.926Z,2.90
2018-12-06T18:35:15.215Z,3.13
2018-12-06T18:37:42.836Z,3.00
2018-12-06T18:43:10.256Z,3.00
2018-12-06T18:45:41.786Z,3.20
2018-12-06T18:48:16.765Z,3.20
2018-12-06T18:50:50.580Z,3.10
2018-12-06T18:53:20.194Z,3.23
2018-12-06T18:55:51.270Z,3.17
2018-12-06T18:58:22.371Z,3.50
2018-12-06T19:00:55.449Z,3.37
2018-12-06T19:09:11.170Z,3.60
2018-12-06T19:11:38.740Z,3.43
2018-12-06T19:14:06.326Z,5.07
2018-12-06T19:16:33.896Z,3.33
2018-12-06T19:19:01.374Z,3.50
2018-12-06T19:21:28.857Z,3.97
2018-12-06T19:23:56.527Z,4.20
2018-12-06T19:26:24.121Z,4.30
2018-12-06T19:28:51.937Z,4.33
2018-12-06T19:34:15.260Z,3.80
2018-12-06T19:36:42.976Z,4.23
2018-12-06T19:39:10.602Z,4.03
2018-12-06T19:41:38.189Z,3.80
2018-12-06T19:44:05.795Z,3.70
2018-12-06T19:46:33.223Z,8.13
2018-12-06T19:49:00.796Z,5.03
2018-12-06T19:51:28.465Z,4.10
2018-12-06T19:53:56.122Z,4.03
2018-12-06T19:56:23.781Z,4.77
2018-12-06T19:58:51.312Z,4.87
2018-12-06T20:01:18.994Z,5.90
2018-12-06T20:03:46.637Z,4.40
2018-12-06T20:06:19.913Z,3.93
2018-12-06T20:08:47.571Z,4.03
2018-12-06T20:11:15.362Z,3.20
2018-12-06T20:13:42.984Z,3.53
2018-12-06T20:16:10.510Z,3.30
2018-12-06T20:18:38.252Z,3.03
2018-12-06T20:21:06.393Z,3.50
2018-12-06T20:23:33.875Z,3.50
2018-12-06T20:26:01.329Z,3.90
2018-12-06T20:28:28.908Z,3.53
2018-12-06T20:30:56.653Z,4.43
2018-12-06T20:33:25.044Z,3.60
2018-12-06T20:35:57.239Z,3.30
2018-12-06T20:38:24.933Z,3.13
2018-12-06T20:40:52.524Z,3.50
2018-12-06T20:43:20.040Z,3.33
2018-12-06T20:45:47.699Z,3.40
2018-12-06T20:48:15.234Z,3.20
2018-12-06T20:50:49.168Z,3.10
2018-12-06T20:53:12.413Z,2.97
2018-12-06T20:55:40.114Z,3.00
2018-12-06T20:58:14.727Z,3.10
2018-12-06T21:00:38.005Z,3.13
2018-12-06T21:03:05.737Z,3.10
2018-12-06T21:05:33.335Z,2.80
2018-12-06T21:08:00.930Z,2.90
2018-12-06T21:10:28.659Z,3.00
2018-12-06T21:12:56.300Z,3.10
2018-12-06T21:15:23.902Z,2.90
2018-12-06T21:17:51.787Z,3.03
2018-12-06T21:20:19.293Z,3.00
2018-12-06T21:22:47.022Z,2.90
2018-12-06T21:25:14.786Z,2.80
2018-12-06T21:27:42.338Z,2.80
2018-12-06T21:30:10.118Z,2.70
2018-12-06T21:32:37.952Z,2.60
2018-12-06T21:35:05.766Z,2.67
2018-12-06T21:37:33.489Z,2.70
2018-12-06T21:40:01.136Z,2.80
2018-12-06T21:42:28.826Z,2.83
2018-12-06T21:44:56.266Z,3.03
2018-12-06T21:47:25.849Z,2.80
2018-12-06T21:49:54.303Z,2.63
2018-12-06T21:52:21.979Z,3.20
2018-12-06T21:54:49.720Z,2.73
2018-12-06T21:57:17.314Z,2.40
2018-12-06T21:59:44.814Z,2.50
2018-12-06T22:02:28.065Z,2.67
2018-12-06T22:07:51.880Z,2.60
2018-12-06T22:10:19.471Z,2.70
2018-12-06T22:12:48.012Z,2.90
2018-12-06T22:15:22.408Z,2.90
2018-12-06T22:17:57.770Z,2.80
2018-12-06T22:20:35.112Z,2.70
2018-12-06T22:23:08.446Z,2.90
2018-12-06T22:25:35.999Z,2.90
2018-12-06T22:28:23.110Z,2.70
2018-12-06T22:30:54.303Z,2.90
2018-12-06T22:33:25.642Z,2.80
2018-12-06T22:35:59.718Z,2.80
2018-12-06T22:38:40.008Z,2.80
2018-12-06T22:41:14.601Z,2.70
2018-12-06T22:43:48.465Z,2.70
2018-12-06T22:46:25.861Z,2.70
2018-12-06T22:48:59.531Z,2.80
2018-12-06T22:51:33.749Z,2.87
2018-12-06T22:57:01.271Z,2.80
2018-12-06T22:59:32.010Z,2.80
2018-12-06T23:02:12.197Z,2.70
2018-12-06T23:07:38.141Z,2.60
2018-12-06T23:15:51.925Z,2.70
2018-12-06T23:18:25.388Z,3.13
2018-12-06T23:20:56.454Z,2.90
2018-12-06T23:23:23.956Z,2.87
2018-12-06T23:25:51.531Z,2.50
2018-12-06T23:28:19.056Z,2.70
2018-12-06T23:30:46.629Z,2.73
2018-12-06T23:33:14.168Z,2.60
2018-12-06T23:35:50.066Z,2.60
2018-12-06T23:38:38.609Z,2.63
2018-12-06T23:41:06.268Z,2.70
2018-12-06T23:43:37.600Z,2.70
2018-12-06T23:46:11.547Z,2.73
2018-12-06T23:51:37.450Z,2.80
2018-12-06T23:54:05.029Z,2.47
2018-12-06T23:56:38.140Z,2.80
2018-12-06T23:59:09.631Z,2.50
